Time;durP1;ratioP1;P1;durP2;ratioP2;P2;SDS_P1;SDS_P2;PMS_P1;PMS_P2;Temp;Humidity;BMP_temperature;BMP_pressure;BME280_temperature;BME280_humidity;BME280_pressure;Samples;Min_cycle;Max_cycle;Signal;HPM_P1;HPM_P2
2021/11/25 08:32:08;;;;;;;11.23;8.17;;;;;;;;;;10465354;28;20408;-82
2021/11/25 08:37:09;;;;;;;9.10;7.50;;;;;;;;;;10516814;28;20029;-82
2021/11/25 08:42:10;;;;;;;9.30;7.50;;;;;;;;;;10546405;28;20020;-83
2021/11/25 08:47:11;;;;;;;;;;;;;;;;;;10549146;27;20021;-82
2021/11/25 08:52:12;;;;;;;9.77;6.68;;;;;;;;;;10552044;27;19912;-82
2021/11/25 08:57:13;;;;;;;10.80;8.15;;;;;;;;;;10557720;28;20029;-83
2021/11/25 09:02:14;;;;;;;;;;;;;;;;;;10548451;28;20045;-82
2021/11/25 09:07:15;;;;;;;10.65;8.60;;;;;;;;;;10553704;27;19929;-81
2021/11/25 09:12:16;;;;;;;;;;;;;;;;;;10551450;28;20028;-82
2021/11/25 09:17:17;;;;;;;11.02;8.02;;;;;;;;;;10541091;27;19915;-82
2021/11/25 09:22:24;;;;;;;;;;;;;;;;;;10540252;28;20032;-82
2021/11/25 09:27:26;;;;;;;12.07;8.23;;;;;;;;;;10538374;27;19915;-83
2021/11/25 09:32:28;;;;;;;11.88;9.38;;;;;;;;;;10518539;28;20032;-82
2021/11/25 09:37:29;;;;;;;;;;;;;;;;;;10513036;28;20337;-82
2021/11/25 09:42:30;;;;;;;13.32;9.15;;;;;;;;;;10515769;28;19908;-83
2021/11/25 09:47:31;;;;;;;;;;;;;;;;;;10514400;28;20077;-83
2021/11/25 09:58:13;;;;;;;11.32;8.57;;;;;;;;;;10512670;28;20111;-82
2021/11/25 10:03:19;;;;;;;10.93;8.32;;;;;;;;;;10495466;28;20111;-80
2021/11/25 10:08:44;;;;;;;11.40;8.60;;;;;;;;;;10510598;28;20088;-84
2021/11/25 10:37:25;;;;;;;5.18;3.85;;;;;;;;;;10506373;27;20028;-84
2021/11/25 10:42:52;;;;;;;5.80;4.00;;;;;;;;;;10508503;28;20033;-83
2021/11/25 10:48:01;;;;;;;5.03;4.10;;;;;;;;;;10382855;28;20505;-84
2021/11/25 10:58:56;;;;;;;5.05;3.70;;;;;;;;;;10398642;28;20042;-84
2021/11/25 11:09:56;;;;;;;4.70;3.78;;;;;;;;;;10368515;28;20029;-85
2021/11/25 11:15:14;;;;;;;5.15;4.15;;;;;;;;;;10392625;28;20052;-79
2021/11/25 11:26:49;;;;;;;7.18;5.70;;;;;;;;;;10512223;27;20021;-86
2021/11/25 11:43:18;;;;;;;6.38;5.43;;;;;;;;;;10509465;27;20036;-83
2021/11/25 11:48:20;;;;;;;8.13;5.22;;;;;;;;;;10507940;28;20104;-82
2021/11/25 11:53:23;;;;;;;5.68;4.00;;;;;;;;;;10506682;28;20029;-82
2021/11/25 11:58:27;;;;;;;5.22;4.00;;;;;;;;;;10505415;28;20025;-83
2021/11/25 12:03:29;;;;;;;6.75;3.92;;;;;;;;;;10576505;22;20039;-83
2021/11/25 12:08:33;;;;;;;4.28;3.47;;;;;;;;;;10574460;28;20035;-83
2021/11/25 12:13:38;;;;;;;3.97;3.20;;;;;;;;;;10446138;28;20437;-83
2021/11/25 12:18:39;;;;;;;3.75;3.03;;;;;;;;;;10489172;28;20029;-83
2021/11/25 12:23:41;;;;;;;4.32;3.13;;;;;;;;;;10508317;28;20090;-84
2021/11/25 12:28:43;;;;;;;4.78;3.35;;;;;;;;;;10486526;28;20032;-85
2021/11/25 12:33:55;;;;;;;4.30;2.88;;;;;;;;;;10487144;28;20029;-86
2021/11/25 12:38:56;;;;;;;3.65;2.85;;;;;;;;;;10486644;28;20392;-84
2021/11/25 12:43:57;;;;;;;3.33;3.03;;;;;;;;;;10417836;28;20082;-86
2021/11/25 12:49:00;;;;;;;4.60;2.75;;;;;;;;;;10488260;28;20158;-85
2021/11/25 12:54:09;;;;;;;5.68;3.08;;;;;;;;;;10488272;28;20032;-86
2021/11/25 12:59:11;;;;;;;3.83;3.08;;;;;;;;;;10487472;28;20037;-86
2021/11/25 13:04:14;;;;;;;3.97;3.00;;;;;;;;;;10483167;28;20036;-81
2021/11/25 13:09:24;;;;;;;4.07;2.70;;;;;;;;;;10423896;28;20029;-82
2021/11/25 13:14:29;;;;;;;3.67;2.70;;;;;;;;;;10489194;28;20021;-83
2021/11/25 13:19:37;;;;;;;4.72;3.00;;;;;;;;;;10491425;28;20132;-82
2021/11/25 13:24:43;;;;;;;4.07;3.30;;;;;;;;;;10488132;28;20354;-82
2021/11/25 13:29:52;;;;;;;5.63;3.40;;;;;;;;;;10488315;28;20032;-80
2021/11/25 13:34:56;;;;;;;4.80;3.28;;;;;;;;;;10417811;28;20033;-81
2021/11/25 13:40:04;;;;;;;4.43;3.60;;;;;;;;;;10469296;28;20045;-80
2021/11/25 13:45:11;;;;;;;9.10;4.47;;;;;;;;;;10418691;28;20303;-82
2021/11/25 13:50:22;;;;;;;5.13;3.67;;;;;;;;;;10418867;28;20025;-81
2021/11/25 13:55:24;;;;;;;5.57;3.90;;;;;;;;;;10418604;28;20025;-81
2021/11/25 14:00:27;;;;;;;6.72;4.35;;;;;;;;;;10487595;28;20126;-80
2021/11/25 14:05:40;;;;;;;6.32;4.65;;;;;;;;;;10485657;28;20022;-80
2021/11/25 14:10:42;;;;;;;8.27;4.80;;;;;;;;;;10487891;28;20031;-80
2021/11/25 14:15:44;;;;;;;7.50;4.70;;;;;;;;;;10493584;28;20467;-82
2021/11/25 14:20:47;;;;;;;5.85;4.20;;;;;;;;;;10495573;28;20032;-79
2021/11/25 14:25:50;;;;;;;10.75;8.75;;;;;;;;;;10513721;27;20128;-82
2021/11/25 14:30:51;;;;;;;16.35;10.80;;;;;;;;;;10489945;28;20435;-84
2021/11/25 14:35:52;;;;;;;18.08;13.40;;;;;;;;;;10492049;28;20073;-83
2021/11/25 14:40:59;;;;;;;12.18;9.70;;;;;;;;;;10491595;28;20078;-85
2021/11/25 14:46:01;;;;;;;9.80;7.88;;;;;;;;;;10492714;28;20384;-86
2021/11/25 14:51:03;;;;;;;10.60;8.07;;;;;;;;;;10425449;28;20094;-86
2021/11/25 14:56:06;;;;;;;10.57;7.45;;;;;;;;;;10491793;28;20060;-81
2021/11/25 15:01:09;;;;;;;10.10;7.43;;;;;;;;;;10496082;28;20430;-83
2021/11/25 15:06:44;;;;;;;7.70;6.72;;;;;;;;;;10432794;28;20406;-82
2021/11/25 15:11:49;;;;;;;10.30;7.15;;;;;;;;;;10481271;28;20033;-83
2021/11/25 15:16:51;;;;;;;8.18;6.72;;;;;;;;;;10481961;27;20045;-84
2021/11/25 15:21:53;;;;;;;7.53;6.72;;;;;;;;;;10525159;28;20067;-85
2021/11/25 15:27:00;;;;;;;8.35;6.80;;;;;;;;;;10491444;28;20026;-86
2021/11/25 15:32:06;;;;;;;8.60;6.68;;;;;;;;;;10490051;28;20018;-85
2021/11/25 15:37:13;;;;;;;8.57;6.93;;;;;;;;;;10488647;28;20026;-85
2021/11/25 15:42:15;;;;;;;8.80;6.70;;;;;;;;;;10489245;28;20025;-83
2021/11/25 15:47:18;;;;;;;8.55;6.65;;;;;;;;;;10491616;28;20026;-84
2021/11/25 15:52:20;;;;;;;8.27;6.80;;;;;;;;;;10494141;28;20071;-83
2021/11/25 15:57:22;;;;;;;12.20;6.85;;;;;;;;;;10488825;28;20048;-85
2021/11/25 16:02:23;;;;;;;9.27;6.30;;;;;;;;;;10488957;28;20097;-82
2021/11/25 16:07:24;;;;;;;10.45;7.90;;;;;;;;;;10491097;28;20041;-85
2021/11/25 16:12:25;;;;;;;10.68;7.22;;;;;;;;;;10496698;28;20040;-82
2021/11/25 16:17:27;;;;;;;9.02;7.00;;;;;;;;;;10487802;28;20166;-82
2021/11/25 16:22:28;;;;;;;10.80;6.78;;;;;;;;;;10485602;28;20113;-82
2021/11/25 16:27:29;;;;;;;9.82;7.32;;;;;;;;;;10504054;27;20032;-81
2021/11/25 16:32:30;;;;;;;8.95;6.60;;;;;;;;;;10484391;28;20429;-81
2021/11/25 16:37:31;;;;;;;11.25;6.97;;;;;;;;;;10486966;28;20044;-83
2021/11/25 16:42:33;;;;;;;12.05;6.95;;;;;;;;;;10493297;28;20120;-82
2021/11/25 16:52:54;;;;;;;9.30;6.85;;;;;;;;;;10426420;28;20120;-81
2021/11/25 16:57:55;;;;;;;9.68;7.35;;;;;;;;;;10508365;28;20086;-80
2021/11/25 17:02:59;;;;;;;9.52;7.13;;;;;;;;;;10496655;28;20500;-80
2021/11/25 17:08:00;;;;;;;9.68;7.13;;;;;;;;;;10496363;28;20034;-81
2021/11/25 17:13:01;;;;;;;8.63;6.85;;;;;;;;;;10422249;28;20028;-80
2021/11/25 17:18:05;;;;;;;12.50;9.30;;;;;;;;;;10489868;28;20029;-80
2021/11/25 17:23:07;;;;;;;18.88;13.65;;;;;;;;;;10508941;28;20489;-81
2021/11/25 17:28:08;;;;;;;21.13;15.80;;;;;;;;;;10444205;28;20033;-80
2021/11/25 17:33:33;;;;;;;24.92;17.75;;;;;;;;;;10511316;28;20036;-83
